Rick Husband Amarillo International Airport
KAMA : rendu visible

Aérodrome :











RETROUVEZ-NOUS SUR...

 
LOGIN :

S'inscrire | Disclaimer

   EN    FR    IT 

 









Légende :    VFR   VFR Marginal   IFR   IFR Intensif   IFR Très Intensif
Visi : 
Plafond : 
>= 8 km
>= 3000ft
5 à 8 km
1000 à 3000 ft
1500m à 5 km
500 à 1000 ft
800 à 1500m
200 à 500 ft
< 800m
< 200 ft
Symboles :   Orages  Brouillard  Fortes neiges  Fortes précipitations  Vent > 20 kt






- Altitude de l'aérodrome : 3607 ft
- Code IATA : AMA


KAMA - Rick Husband Amarillo International

DERNIER METAR :
  • 171803Z 22020G27KT 9SM SCT006 07/04 A2999 RMK AO2 PK WND 22027/1801 T00670044

METARs EXPIRÉS :
  • 171731Z 21020KT 7SM OVC005 04/03 A3000 RMK AO2 PK WND 21026/1722 T00440033
  • 171653Z 21020G24KT 5SM BR BKN004 03/02 A3002 RMK AO2 PK WND 20027/1629 SLP176 I1000 T00280017
  • 171553Z 21019KT 7SM BKN005 01/M01 A3003 RMK AO2 SLP184 I1001 T00061006

TAF KAMA
Valide du 17 à 18h jusqu'au 18 à 18h UTC


171720Z 1718/1818 22022G31KT P6SM FEW250
FM180200 27014G22KT P6SM FEW250
FM181100 34010KT P6SM FEW250



MET'MAP, la Météo Aéronautique d'un coup d'oeil ! - Copyright ORBIFLY Décembre 2007 - Disclaimer

ORBIFLY MET'MAP TEAM :

Programmation & Développement : Alexandra Zaïnal
Sur une idée originale de : Baudouin d'Aumeries
Assistance à la programmation : Marc-Olivier Méhu
Soutien technique & logistique : Manuel Goepfert

Contact : metmap@orbifly.com




SOURCES & CREDITS :

   NOAA       Earth
Advisory